createdAt,value
2018-04-27T16:01:27.347Z,9828
2018-04-27T16:01:40.366Z,9864
2018-04-27T16:01:52.907Z,9840
2018-04-27T16:02:05.433Z,9884
2018-04-27T16:02:18.462Z,9940
2018-04-27T16:02:31.021Z,9964
2018-04-27T16:02:43.993Z,9984
2018-04-27T16:02:56.997Z,9936
2018-04-27T16:03:09.990Z,9976
2018-04-27T16:03:22.094Z,9980
2018-04-27T16:03:35.086Z,9980
2018-04-27T16:03:47.693Z,9948
2018-04-27T16:04:00.225Z,9952
2018-04-27T16:04:13.242Z,9892
2018-04-27T16:04:26.313Z,9932
2018-04-27T16:04:39.321Z,9892
2018-04-27T16:04:51.893Z,9896
2018-04-27T16:05:04.551Z,9828
2018-04-27T16:05:17.102Z,9788
2018-04-27T16:05:30.159Z,9816
2018-04-27T16:05:42.753Z,9832
2018-04-27T16:05:55.321Z,9832
2018-04-27T16:06:07.432Z,9840
2018-04-27T16:06:20.440Z,9852
2018-04-27T16:06:33.519Z,9856
2018-04-27T16:06:51.919Z,9892
2018-04-27T16:07:04.944Z,9904
2018-04-27T16:07:17.564Z,9940
2018-04-27T16:07:30.097Z,9988
2018-04-27T16:07:43.133Z,10012
2018-04-27T16:07:56.161Z,10052
2018-04-27T16:08:08.204Z,10092
2018-04-27T16:08:21.216Z,10124
2018-04-27T16:08:34.216Z,10172
2018-04-27T16:08:47.263Z,10192
2018-04-27T16:08:59.792Z,10232
2018-04-27T16:09:11.990Z,10248
2018-04-27T16:09:25.574Z,10216
2018-04-27T16:09:37.792Z,10244
2018-04-27T16:09:50.389Z,10292
2018-04-27T16:10:03.406Z,10292
2018-04-27T16:10:15.030Z,10324
2018-04-27T16:10:27.687Z,10340
2018-04-27T16:10:40.235Z,10352
2018-04-27T16:10:53.293Z,10400
2018-04-27T16:11:06.363Z,10420
2018-04-27T16:11:19.389Z,10472
2018-04-27T16:11:31.514Z,10496
2018-04-27T16:11:44.506Z,10492
2018-04-27T16:11:57.584Z,10532
2018-04-27T16:12:10.175Z,10528
2018-04-27T16:12:22.737Z,10584
2018-04-27T16:12:35.712Z,10612
2018-04-27T16:12:48.746Z,10640
2018-04-27T16:13:00.794Z,10656
2018-04-27T16:13:13.339Z,10704
2018-04-27T16:13:25.390Z,10740
2018-04-27T16:13:38.401Z,10772
2018-04-27T16:13:51.436Z,10836
2018-04-27T16:14:03.557Z,10840
2018-04-27T16:14:16.638Z,10884
2018-04-27T16:14:29.650Z,10948
2018-04-27T16:14:42.205Z,11000
2018-04-27T16:14:55.339Z,11044
2018-04-27T16:15:07.465Z,11112
2018-04-27T16:15:19.529Z,11160
2018-04-27T16:15:32.546Z,11248
2018-04-27T16:15:45.578Z,11280
2018-04-27T16:15:58.171Z,11336
2018-04-27T16:16:10.285Z,11376
2018-04-27T16:16:22.917Z,11456
2018-04-27T16:16:35.468Z,11536
2018-04-27T16:16:48.043Z,11604
2018-04-27T16:17:00.579Z,11664
2018-04-27T16:17:13.149Z,11720
2018-04-27T16:17:26.193Z,11760
2018-04-27T16:17:39.218Z,11800
2018-04-27T16:17:52.238Z,11796
2018-04-27T16:18:04.839Z,11840
2018-04-27T16:18:16.974Z,11848
2018-04-27T16:18:29.524Z,11880
2018-04-27T16:18:42.530Z,11896
2018-04-27T16:18:55.641Z,11904
2018-04-27T16:19:07.755Z,11904
2018-04-27T16:19:20.292Z,11896
2018-04-27T16:19:32.897Z,11880
2018-04-27T16:19:45.894Z,11860
2018-04-27T16:19:58.949Z,11824
2018-04-27T16:20:11.529Z,11784
2018-04-27T16:20:24.092Z,11732
2018-04-27T16:20:36.146Z,11664
2018-04-27T16:20:49.168Z,11568
2018-04-27T16:21:02.210Z,11560
2018-04-27T16:21:15.374Z,11464
2018-04-27T16:21:27.116Z,11416
2018-04-27T16:21:39.681Z,11356
2018-04-27T16:21:52.720Z,11308
2018-04-27T16:22:05.299Z,11268
2018-04-27T16:22:17.847Z,11232
2018-04-27T16:22:30.883Z,11200
2018-04-27T16:22:43.929Z,11136
2018-04-27T16:22:56.475Z,11060
2018-04-27T16:23:09.522Z,11020
2018-04-27T16:23:22.064Z,10980
2018-04-27T16:23:34.174Z,10952
2018-04-27T16:23:47.183Z,10932
2018-04-27T16:24:00.184Z,10896
2018-04-27T16:24:13.246Z,10856
2018-04-27T16:24:25.799Z,10880
2018-04-27T16:24:38.349Z,10872
2018-04-27T16:24:50.894Z,10800
2018-04-27T16:25:03.885Z,10732
2018-04-27T16:25:16.473Z,10708
2018-04-27T16:25:29.029Z,10564
2018-04-27T16:25:42.079Z,10456
2018-04-27T16:25:55.125Z,10560
2018-04-27T16:26:07.719Z,10436
2018-04-27T16:26:20.801Z,10536
2018-04-27T16:26:33.470Z,10516
2018-04-27T16:26:45.552Z,10464
2018-04-27T16:26:57.645Z,10400
2018-04-27T16:27:10.194Z,10336
2018-04-27T16:27:23.235Z,10308
2018-04-27T16:27:35.337Z,10292
2018-04-27T16:27:48.364Z,10244
2018-04-27T16:28:00.932Z,10244
2018-04-27T16:28:13.658Z,10208
2018-04-27T16:28:26.254Z,10180
2018-04-27T16:28:38.812Z,10132
2018-04-27T16:28:51.857Z,10076
2018-04-27T16:29:04.414Z,10040
2018-04-27T16:29:17.435Z,9944
2018-04-27T16:29:30.482Z,9936
2018-04-27T16:29:43.014Z,9904
2018-04-27T16:29:55.133Z,9888
2018-04-27T16:30:07.795Z,9852
2018-04-27T16:30:20.544Z,9804
2018-04-27T16:30:33.054Z,9788
2018-04-27T16:30:45.563Z,9776
2018-04-27T16:30:58.128Z,9764
2018-04-27T16:31:11.169Z,9744
2018-04-27T16:31:24.174Z,9704
2018-04-27T16:31:37.157Z,9676
2018-04-27T16:31:49.253Z,9644
2018-04-27T16:32:02.316Z,9648
2018-04-27T16:32:14.859Z,9640
2018-04-27T16:32:27.856Z,9664
2018-04-27T16:32:40.893Z,9724
2018-04-27T16:32:53.464Z,9768
2018-04-27T16:33:06.006Z,9752
2018-04-27T16:33:18.606Z,9808
2018-04-27T16:33:31.191Z,9804
2018-04-27T16:33:44.202Z,9836
2018-04-27T16:33:57.237Z,9832
2018-04-27T16:34:10.244Z,9844
2018-04-27T16:34:23.312Z,9828
2018-04-27T16:34:34.939Z,9836
2018-04-27T16:34:47.987Z,9780
2018-04-27T16:35:01.024Z,9820
2018-04-27T16:35:13.112Z,9832
2018-04-27T16:35:25.211Z,9856
2018-04-27T16:35:38.240Z,9892
2018-04-27T16:35:51.127Z,9908
2018-04-27T16:36:04.289Z,9808
2018-04-27T16:36:17.343Z,9932
2018-04-27T16:36:29.878Z,9880
2018-04-27T16:36:42.381Z,9908
2018-04-27T16:36:54.462Z,9916
2018-04-27T16:37:07.059Z,9940
2018-04-27T16:37:19.612Z,9944
2018-04-27T16:37:31.706Z,9948
2018-04-27T16:37:43.788Z,9940
2018-04-27T16:37:55.391Z,9936
2018-04-27T16:38:07.523Z,9920
2018-04-27T16:38:19.609Z,9908
2018-04-27T16:38:32.134Z,9928
2018-04-27T16:38:44.706Z,9900
2018-04-27T16:38:57.743Z,9892
2018-04-27T16:39:10.299Z,9860
2018-04-27T16:39:23.332Z,9844
2018-04-27T16:39:34.966Z,9800
2018-04-27T16:39:47.546Z,9780
2018-04-27T16:40:00.600Z,9720
2018-04-27T16:40:13.142Z,9664
2018-04-27T16:40:26.102Z,9568
2018-04-27T16:40:39.109Z,9492
2018-04-27T16:40:51.218Z,9440
2018-04-27T16:41:04.222Z,9404
2018-04-27T16:41:16.804Z,9376
2018-04-27T16:41:29.370Z,9376
2018-04-27T16:41:42.027Z,9396
2018-04-27T16:41:54.369Z,9380
2018-04-27T16:42:07.269Z,9376
2018-04-27T16:42:19.795Z,9388
2018-04-27T16:42:32.368Z,9416
2018-04-27T16:42:45.360Z,9452
2018-04-27T16:42:57.940Z,9504
2018-04-27T16:43:10.511Z,9568
2018-04-27T16:43:23.565Z,9628
2018-04-27T16:43:35.650Z,9696
2018-04-27T16:43:48.198Z,9716
2018-04-27T16:44:01.232Z,9736
2018-04-27T16:44:13.315Z,9740
2018-04-27T16:44:25.859Z,9808
2018-04-27T16:44:37.501Z,9824
2018-04-27T16:44:50.088Z,9852
2018-04-27T16:45:02.653Z,9852
2018-04-27T16:45:15.664Z,9880
2018-04-27T16:45:27.787Z,9908
2018-04-27T16:45:40.767Z,9892
2018-04-27T16:45:53.369Z,9932
2018-04-27T16:46:06.378Z,10016
2018-04-27T16:46:18.472Z,10032
2018-04-27T16:46:31.455Z,10068
2018-04-27T16:46:44.584Z,10060
2018-04-27T16:46:57.725Z,10092
2018-04-27T16:47:10.739Z,10180
2018-04-27T16:47:22.856Z,10248
2018-04-27T16:47:35.376Z,10280
2018-04-27T16:47:47.455Z,10268
2018-04-27T16:47:59.270Z,10240
2018-04-27T16:48:12.293Z,10248
2018-04-27T16:48:25.342Z,10256
2018-04-27T16:48:37.911Z,10256
2018-04-27T16:48:49.984Z,10208
2018-04-27T16:49:02.977Z,10284
2018-04-27T16:49:16.035Z,10300
2018-04-27T16:49:28.595Z,10308
2018-04-27T16:49:41.150Z,10316
2018-04-27T16:49:53.221Z,10380
2018-04-27T16:50:05.783Z,10448
2018-04-27T16:50:18.323Z,10492
2018-04-27T16:50:30.392Z,10528
2018-04-27T16:50:42.948Z,10548
2018-04-27T16:50:55.487Z,10536
2018-04-27T16:51:08.561Z,10520
2018-04-27T16:51:21.129Z,10556
2018-04-27T16:51:34.166Z,10568
2018-04-27T16:51:47.298Z,10572
2018-04-27T16:52:00.302Z,10580
2018-04-27T16:52:12.348Z,10568
2018-04-27T16:52:24.444Z,10572
2018-04-27T16:52:36.568Z,10560
2018-04-27T16:52:48.205Z,10516
2018-04-27T16:52:59.835Z,10480
2018-04-27T16:53:12.375Z,10432
2018-04-27T16:53:24.953Z,10372
2018-04-27T16:53:37.522Z,10280
2018-04-27T16:53:50.086Z,10192
2018-04-27T16:54:02.694Z,10104
2018-04-27T16:54:15.748Z,10020
2018-04-27T16:54:28.337Z,9972
2018-04-27T16:54:41.121Z,9880
2018-04-27T16:54:53.695Z,9792
2018-04-27T16:55:06.710Z,9736
2018-04-27T16:55:19.732Z,9592
2018-04-27T16:55:32.322Z,9216
2018-04-27T16:55:44.896Z,8572
2018-04-27T16:55:56.496Z,7972
2018-04-27T16:56:08.146Z,7648
2018-04-27T16:56:21.160Z,7484
2018-04-27T16:56:33.727Z,7400
2018-04-27T16:56:46.391Z,7356
2018-04-27T16:56:59.409Z,7368
2018-04-27T16:57:11.491Z,7416
2018-04-27T16:57:24.494Z,7460
2018-04-27T16:57:36.602Z,7588
2018-04-27T16:57:48.698Z,7660
2018-04-27T16:58:01.710Z,7932
2018-04-27T16:58:14.240Z,8312
2018-04-27T16:58:27.231Z,8660
2018-04-27T16:58:39.825Z,9064
2018-04-27T16:58:52.896Z,9384
2018-04-27T16:59:06.051Z,9476
2018-04-27T16:59:19.062Z,9480
2018-04-27T16:59:31.585Z,9432
2018-04-27T16:59:44.185Z,9432
2018-04-27T16:59:56.369Z,9420
2018-04-27T17:00:08.905Z,9420
2018-04-27T17:00:21.533Z,9416
2018-04-27T17:00:34.081Z,9368
2018-04-27T17:00:46.618Z,9372
2018-04-27T17:00:59.688Z,9384
2018-04-27T17:01:11.782Z,9364
2018-04-27T17:01:24.347Z,9368
2018-04-27T17:01:37.378Z,9360
2018-04-27T17:01:50.470Z,9364
2018-04-27T17:02:03.519Z,9368
2018-04-27T17:02:16.060Z,9356
2018-04-27T17:02:29.052Z,9364
2018-04-27T17:02:41.167Z,9348
2018-04-27T17:02:54.198Z,9396
2018-04-27T17:03:07.234Z,9392
2018-04-27T17:03:18.846Z,9380
2018-04-27T17:03:31.890Z,9376
2018-04-27T17:03:45.169Z,9360
2018-04-27T17:03:57.768Z,9364
2018-04-27T17:04:10.323Z,9384
2018-04-27T17:04:22.431Z,9344
2018-04-27T17:04:35.018Z,9348
2018-04-27T17:04:47.105Z,9300
2018-04-27T17:05:00.146Z,9304
2018-04-27T17:05:12.670Z,9300
2018-04-27T17:05:25.233Z,9248
2018-04-27T17:05:37.819Z,9224
2018-04-27T17:05:50.408Z,9172
2018-04-27T17:06:02.969Z,9104
2018-04-27T17:06:15.515Z,9104
2018-04-27T17:06:28.556Z,8928
2018-04-27T17:06:41.603Z,8768
2018-04-27T17:06:54.612Z,8660
2018-04-27T17:07:07.619Z,8464
2018-04-27T17:07:20.200Z,8532
2018-04-27T17:07:33.224Z,8712
2018-04-27T17:07:46.238Z,8752
2018-04-27T17:07:59.289Z,8680
2018-04-27T17:08:12.289Z,8508
2018-04-27T17:08:24.837Z,8372
2018-04-27T17:08:37.360Z,8400
2018-04-27T17:08:50.369Z,8600
2018-04-27T17:09:03.346Z,8748
2018-04-27T17:09:15.411Z,8784
2018-04-27T17:09:28.075Z,8892
2018-04-27T17:09:40.952Z,8868
2018-04-27T17:09:53.505Z,8804
2018-04-27T17:10:06.041Z,8744
2018-04-27T17:10:17.663Z,8664
2018-04-27T17:10:29.750Z,8528
2018-04-27T17:10:41.839Z,8384
2018-04-27T17:10:54.381Z,8140
2018-04-27T17:11:06.945Z,8312
2018-04-27T17:11:19.495Z,8512
2018-04-27T17:11:32.070Z,8620
2018-04-27T17:11:45.127Z,8584
2018-04-27T17:11:57.675Z,8436
2018-04-27T17:12:10.710Z,8212
2018-04-27T17:12:23.280Z,8496
2018-04-27T17:12:35.825Z,8336
2018-04-27T17:12:48.462Z,8356
2018-04-27T17:13:01.453Z,8404
2018-04-27T17:13:13.523Z,8332
2018-04-27T17:13:26.632Z,8292
2018-04-27T17:13:39.371Z,8212
2018-04-27T17:13:51.947Z,7728
2018-04-27T17:14:04.519Z,7792
2018-04-27T17:14:17.555Z,7628
2018-04-27T17:14:30.555Z,7272
2018-04-27T17:14:43.103Z,7676
2018-04-27T17:14:56.120Z,7284
2018-04-27T17:15:09.178Z,7272
2018-04-27T17:15:22.220Z,8020
2018-04-27T17:15:34.782Z,8188
2018-04-27T17:15:46.879Z,8412
2018-04-27T17:15:59.998Z,8576
2018-04-27T17:16:13.019Z,8632
2018-04-27T17:16:25.602Z,8668
2018-04-27T17:16:40.083Z,8720
2018-04-27T17:16:53.195Z,8716
2018-04-27T17:17:05.348Z,8724
2018-04-27T17:17:17.503Z,8720
2018-04-27T17:17:30.084Z,8720
2018-04-27T17:17:42.655Z,8744
2018-04-27T17:17:55.680Z,8788
2018-04-27T17:18:07.767Z,8672
2018-04-27T17:18:19.866Z,8680
2018-04-27T17:18:32.897Z,8660
2018-04-27T17:18:45.486Z,8644
2018-04-27T17:18:58.508Z,8600
2018-04-27T17:19:11.065Z,8564
2018-04-27T17:19:24.323Z,8668
2018-04-27T17:19:37.494Z,8568
2018-04-27T17:19:50.513Z,8584
2018-04-27T17:20:03.057Z,8616
2018-04-27T17:20:15.556Z,8588
2018-04-27T17:20:28.083Z,8584
2018-04-27T17:20:40.632Z,8596
2018-04-27T17:20:53.161Z,8588
2018-04-27T17:21:06.155Z,8552
2018-04-27T17:21:19.212Z,8556
2018-04-27T17:21:31.781Z,8556
2018-04-27T17:21:44.356Z,8532
2018-04-27T17:21:55.981Z,8536
2018-04-27T17:22:08.561Z,8560
2018-04-27T17:22:21.121Z,8520
2018-04-27T17:22:33.207Z,8548
2018-04-27T17:22:45.995Z,8508
2018-04-27T17:22:58.556Z,8520
2018-04-27T17:23:10.613Z,8476
2018-04-27T17:23:23.598Z,8456
2018-04-27T17:23:36.205Z,8440
2018-04-27T17:23:48.302Z,8444
2018-04-27T17:24:00.391Z,8468
2018-04-27T17:24:12.496Z,8460
2018-04-27T17:24:25.066Z,8488
2018-04-27T17:24:35.740Z,8496
2018-04-27T17:24:48.850Z,8480
2018-04-27T17:25:01.402Z,8504
2018-04-27T17:25:14.457Z,8500
2018-04-27T17:25:27.000Z,8504
2018-04-27T17:25:38.634Z,8512
2018-04-27T17:25:51.182Z,8504
2018-04-27T17:26:03.756Z,8488
2018-04-27T17:26:16.791Z,8492
2018-04-27T17:26:29.940Z,8480
2018-04-27T17:26:42.574Z,8476
2018-04-27T17:26:55.238Z,8468
2018-04-27T17:27:07.786Z,8456
2018-04-27T17:27:20.824Z,8440
2018-04-27T17:27:31.998Z,8440
2018-04-27T17:27:44.533Z,8424
2018-04-27T17:27:57.560Z,8420
2018-04-27T17:28:10.135Z,8420
2018-04-27T17:28:22.219Z,8428
2018-04-27T17:28:35.545Z,8424
2018-04-27T17:28:49.083Z,8412
2018-04-27T17:29:02.358Z,8400
2018-04-27T17:29:14.900Z,8404
2018-04-27T17:29:27.932Z,8376
2018-04-27T17:29:40.962Z,8380
2018-04-27T17:29:53.963Z,8360
2018-04-27T17:30:06.050Z,8344
2018-04-27T17:30:19.084Z,8348
2018-04-27T17:30:31.616Z,8328
2018-04-27T17:30:44.162Z,8308
2018-04-27T17:30:56.721Z,8304
2018-04-27T17:31:08.824Z,8300
2018-04-27T17:31:21.840Z,8292
2018-04-27T17:31:34.402Z,8292
2018-04-27T17:31:47.538Z,8292
2018-04-27T17:32:00.118Z,8288
2018-04-27T17:32:12.246Z,8284
2018-04-27T17:32:24.792Z,8288
2018-04-27T17:32:37.843Z,8288
2018-04-27T17:32:50.403Z,8296
2018-04-27T17:33:02.934Z,8280
2018-04-27T17:33:15.030Z,8280
2018-04-27T17:33:27.600Z,8280
2018-04-27T17:33:40.648Z,8260
2018-04-27T17:33:53.231Z,8256
2018-04-27T17:34:05.801Z,8272
2018-04-27T17:34:18.342Z,8292
2018-04-27T17:34:30.458Z,8300
2018-04-27T17:34:43.028Z,8288
2018-04-27T17:34:55.611Z,8288
2018-04-27T17:35:08.367Z,8304
2018-04-27T17:35:21.200Z,8320
2018-04-27T17:35:34.664Z,8288
2018-04-27T17:35:47.664Z,8300
2018-04-27T17:35:59.280Z,8308
2018-04-27T17:36:11.840Z,8284
2018-04-27T17:36:24.869Z,8264
2018-04-27T17:36:36.962Z,8264
2018-04-27T17:36:49.979Z,8240
2018-04-27T17:37:03.052Z,8236
2018-04-27T17:37:15.984Z,8236
2018-04-27T17:37:28.574Z,8248
2018-04-27T17:37:41.109Z,8248
2018-04-27T17:37:53.642Z,8308
2018-04-27T17:38:06.211Z,8264
2018-04-27T17:38:18.279Z,8244
2018-04-27T17:38:30.373Z,8212
2018-04-27T17:38:43.426Z,8176
2018-04-27T17:38:55.980Z,8184
2018-04-27T17:39:08.069Z,8268
2018-04-27T17:39:21.058Z,8288
2018-04-27T17:39:34.038Z,8292
2018-04-27T17:39:46.638Z,8284
2018-04-27T17:39:59.843Z,8312
2018-04-27T17:40:12.386Z,8308
2018-04-27T17:40:25.611Z,8344
2018-04-27T17:40:37.759Z,8340
2018-04-27T17:40:50.320Z,8348
2018-04-27T17:41:02.924Z,8368
2018-04-27T17:41:15.978Z,8340
2018-04-27T17:41:28.539Z,8356
2018-04-27T17:41:41.575Z,8356
2018-04-27T17:41:54.689Z,8356
2018-04-27T17:42:07.267Z,8360
2018-04-27T17:42:19.390Z,8364
2018-04-27T17:42:32.456Z,8352
2018-04-27T17:42:45.488Z,8348
2018-04-27T17:42:58.561Z,8352
2018-04-27T17:43:11.594Z,8356
2018-04-27T17:43:24.738Z,8356
2018-04-27T17:43:37.534Z,8348
2018-04-27T17:43:50.518Z,8348
2018-04-27T17:44:03.592Z,8360
2018-04-27T17:44:15.711Z,8368
2018-04-27T17:44:27.521Z,8360
2018-04-27T17:44:40.813Z,8356
2018-04-27T17:44:53.842Z,8368
2018-04-27T17:45:06.365Z,8364
2018-04-27T17:45:19.382Z,8364
2018-04-27T17:45:32.441Z,8364
2018-04-27T17:45:45.096Z,8364
2018-04-27T17:45:57.911Z,8360
2018-04-27T17:46:10.443Z,8384
2018-04-27T17:46:23.487Z,8384
2018-04-27T17:46:36.023Z,8384
2018-04-27T17:46:48.537Z,8400
2018-04-27T17:47:01.163Z,8400
2018-04-27T17:47:13.713Z,8384
2018-04-27T17:47:25.809Z,8388
2018-04-27T17:47:38.368Z,8396
2018-04-27T17:47:50.940Z,8400
2018-04-27T17:48:03.592Z,8408
2018-04-27T17:48:16.784Z,8412
2018-04-27T17:48:29.816Z,8408
2018-04-27T17:48:42.908Z,8428
2018-04-27T17:48:55.675Z,8444
2018-04-27T17:49:07.761Z,8440
2018-04-27T17:49:20.308Z,8436
2018-04-27T17:49:32.376Z,8460
2018-04-27T17:49:44.932Z,8460
2018-04-27T17:49:57.486Z,8460
2018-04-27T17:50:10.530Z,8452
2018-04-27T17:50:23.102Z,8456
2018-04-27T17:50:35.196Z,8464
2018-04-27T17:50:48.202Z,8452
2018-04-27T17:51:00.773Z,8468
2018-04-27T17:51:13.346Z,8476
2018-04-27T17:51:26.418Z,8488
2018-04-27T17:51:38.976Z,8492
2018-04-27T17:51:51.553Z,8508
2018-04-27T17:52:03.653Z,8508
2018-04-27T17:52:16.690Z,8516
2018-04-27T17:52:28.792Z,8512
2018-04-27T17:52:40.881Z,8548
2018-04-27T17:52:53.910Z,8536
2018-04-27T17:53:06.944Z,8540
2018-04-27T17:53:19.996Z,8572
2018-04-27T17:53:32.831Z,8596
2018-04-27T17:53:45.577Z,8604
2018-04-27T17:53:58.157Z,8624
2018-04-27T17:54:10.246Z,8620
2018-04-27T17:54:22.793Z,8612
2018-04-27T17:54:34.853Z,8680
2018-04-27T17:54:47.893Z,8684
2018-04-27T17:55:00.478Z,8732
2018-04-27T17:55:13.523Z,8732
2018-04-27T17:55:26.570Z,8756
2018-04-27T17:55:39.233Z,8756
2018-04-27T17:55:52.170Z,8776
2018-04-27T17:56:04.234Z,8788
2018-04-27T17:56:17.285Z,8820
2018-04-27T17:56:30.338Z,8840
2018-04-27T17:56:42.433Z,8864
2018-04-27T17:56:54.980Z,8884
2018-04-27T17:57:07.065Z,8872
2018-04-27T17:57:19.177Z,8856
2018-04-27T17:57:31.734Z,8860
2018-04-27T17:57:44.735Z,8856
2018-04-27T17:57:57.717Z,8864
2018-04-27T17:58:10.261Z,8848
2018-04-27T17:58:23.266Z,8836
2018-04-27T17:58:35.372Z,8840
2018-04-27T17:58:47.437Z,8824
2018-04-27T17:59:00.462Z,8804
2018-04-27T17:59:12.540Z,8788
2018-04-27T17:59:25.815Z,8776
2018-04-27T17:59:39.281Z,8760
2018-04-27T17:59:51.837Z,8740
2018-04-27T18:00:04.383Z,8728
2018-04-27T18:00:16.940Z,8716
2018-04-27T18:00:29.529Z,8696
2018-04-27T18:00:42.119Z,8708
2018-04-27T18:00:54.661Z,8716
2018-04-27T18:01:07.241Z,8724
2018-04-27T18:01:19.790Z,8728
2018-04-27T18:01:32.366Z,8744
2018-04-27T18:01:44.933Z,8752
2018-04-27T18:01:58.078Z,8744
2018-04-27T18:02:10.437Z,8756
2018-04-27T18:02:22.998Z,8772
2018-04-27T18:02:35.556Z,8776
2018-04-27T18:02:48.601Z,8784
2018-04-27T18:03:01.610Z,8788
2018-04-27T18:03:12.754Z,8816
2018-04-27T18:03:25.767Z,8828
2018-04-27T18:03:38.790Z,8832
2018-04-27T18:03:50.420Z,8828
2018-04-27T18:04:03.003Z,8844
2018-04-27T18:04:16.031Z,8864
2018-04-27T18:04:29.049Z,8908
2018-04-27T18:04:41.121Z,8908
2018-04-27T18:04:54.150Z,8920
2018-04-27T18:05:06.224Z,8948
2018-04-27T18:05:18.804Z,8956
2018-04-27T18:05:31.821Z,8956
2018-04-27T18:05:44.868Z,8996
2018-04-27T18:05:57.440Z,8996
2018-04-27T18:06:09.510Z,8988
2018-04-27T18:06:22.562Z,8992
2018-04-27T18:06:34.181Z,8988
2018-04-27T18:06:46.773Z,9024
2018-04-27T18:06:59.329Z,9000
2018-04-27T18:07:11.404Z,9000
2018-04-27T18:07:23.977Z,8980
2018-04-27T18:07:37.328Z,9012
2018-04-27T18:07:50.306Z,9004
2018-04-27T18:08:03.331Z,9008
2018-04-27T18:08:15.885Z,8984
2018-04-27T18:08:28.024Z,8984
2018-04-27T18:08:40.551Z,8960
2018-04-27T18:08:53.109Z,8956
2018-04-27T18:09:06.133Z,8900
2018-04-27T18:09:18.222Z,8896
2018-04-27T18:09:30.326Z,8884
2018-04-27T18:09:42.916Z,8800
2018-04-27T18:09:55.476Z,8844
2018-04-27T18:10:07.544Z,8816
2018-04-27T18:10:19.637Z,8764
2018-04-27T18:10:32.647Z,8728
2018-04-27T18:10:45.165Z,8696
2018-04-27T18:10:57.731Z,8676
2018-04-27T18:11:10.265Z,8744
2018-04-27T18:11:22.367Z,8736
2018-04-27T18:11:35.134Z,8668
2018-04-27T18:11:49.025Z,8672
2018-04-27T18:12:02.859Z,8652
2018-04-27T18:12:15.627Z,8644
2018-04-27T18:12:28.330Z,8632
2018-04-27T18:12:40.889Z,8640
2018-04-27T18:12:53.458Z,8712
2018-04-27T18:13:06.688Z,8704
2018-04-27T18:13:19.257Z,8700
2018-04-27T18:13:31.818Z,8696
2018-04-27T18:13:44.837Z,8736
2018-04-27T18:13:56.968Z,8732
2018-04-27T18:14:10.003Z,8736
2018-04-27T18:14:23.024Z,8748
2018-04-27T18:14:35.617Z,8748
2018-04-27T18:14:47.742Z,8728
2018-04-27T18:15:00.307Z,8720
2018-04-27T18:15:12.851Z,8720
2018-04-27T18:15:25.910Z,8700
2018-04-27T18:15:38.018Z,8688
2018-04-27T18:15:50.570Z,8640
2018-04-27T18:16:03.559Z,8656
2018-04-27T18:16:16.523Z,8628
2018-04-27T18:16:29.068Z,8580
2018-04-27T18:16:41.259Z,8520
2018-04-27T18:16:54.219Z,8508
2018-04-27T18:17:07.368Z,8492
2018-04-27T18:17:19.905Z,8472
2018-04-27T18:17:33.009Z,8392
2018-04-27T18:17:45.729Z,8408
2018-04-27T18:17:58.054Z,8392
2018-04-27T18:18:11.243Z,8316
2018-04-27T18:18:23.913Z,8316
2018-04-27T18:18:35.549Z,8292
2018-04-27T18:18:48.591Z,8256
2018-04-27T18:19:01.618Z,8212
2018-04-27T18:19:13.695Z,8156
2018-04-27T18:19:26.237Z,8132
2018-04-27T18:19:38.316Z,8056
2018-04-27T18:19:50.404Z,8024
2018-04-27T18:20:02.443Z,8052
2018-04-27T18:20:14.541Z,8020
2018-04-27T18:20:27.552Z,8032
2018-04-27T18:20:40.531Z,8092
2018-04-27T18:20:53.090Z,8060
2018-04-27T18:21:05.190Z,8000
2018-04-27T18:21:18.220Z,7968
2018-04-27T18:21:29.852Z,7920
2018-04-27T18:21:42.846Z,7844
2018-04-27T18:21:54.896Z,7804
2018-04-27T18:22:07.906Z,7732
2018-04-27T18:22:20.897Z,7620
2018-04-27T18:22:33.949Z,7556
2018-04-27T18:22:47.035Z,7432
2018-04-27T18:23:00.429Z,7340
2018-04-27T18:23:13.435Z,7208
2018-04-27T18:23:25.504Z,7004
2018-04-27T18:23:38.041Z,6712
2018-04-27T18:23:50.589Z,6440
2018-04-27T18:24:03.623Z,6300
2018-04-27T18:24:16.188Z,6252
2018-04-27T18:24:29.213Z,6228
2018-04-27T18:24:41.328Z,6220
2018-04-27T18:24:54.347Z,6196
2018-04-27T18:25:07.374Z,6176
2018-04-27T18:25:19.573Z,6140
2018-04-27T18:25:32.406Z,6084
2018-04-27T18:25:45.848Z,6060
2018-04-27T18:25:58.425Z,6084
2018-04-27T18:26:11.440Z,6052
2018-04-27T18:26:24.006Z,6008
2018-04-27T18:26:36.107Z,5992
2018-04-27T18:26:49.168Z,5988
2018-04-27T18:27:02.175Z,5988
2018-04-27T18:27:15.203Z,6028
2018-04-27T18:27:27.798Z,6016
2018-04-27T18:27:39.475Z,5976
2018-04-27T18:27:52.390Z,5956
2018-04-27T18:28:05.409Z,5928
2018-04-27T18:28:17.964Z,5864
2018-04-27T18:28:30.019Z,5832
2018-04-27T18:28:43.131Z,5820
2018-04-27T18:28:56.190Z,5792
2018-04-27T18:29:07.830Z,5768
2018-04-27T18:29:20.911Z,5748
2018-04-27T18:29:33.477Z,5732
2018-04-27T18:29:46.577Z,5748
2018-04-27T18:29:59.317Z,5868
2018-04-27T18:30:10.485Z,6040
2018-04-27T18:30:23.049Z,6208
2018-04-27T18:30:35.610Z,6396
2018-04-27T18:30:47.209Z,6392
2018-04-27T18:30:59.774Z,6232
2018-04-27T18:31:12.332Z,6172
2018-04-27T18:31:25.338Z,6064
2018-04-27T18:31:37.431Z,5936
2018-04-27T18:31:50.488Z,5872
2018-04-27T18:32:03.056Z,5876
2018-04-27T18:32:16.412Z,5932
2018-04-27T18:32:28.491Z,6000
2018-04-27T18:32:41.233Z,6048
2018-04-27T18:32:54.127Z,6080
2018-04-27T18:33:07.124Z,6152
2018-04-27T18:33:20.231Z,6252
2018-04-27T18:33:33.558Z,6260
2018-04-27T18:33:46.088Z,6308
2018-04-27T18:33:59.134Z,6400
2018-04-27T18:34:11.243Z,6452
2018-04-27T18:34:24.247Z,6440
2018-04-27T18:34:37.299Z,6420
2018-04-27T18:34:50.333Z,6404
2018-04-27T18:35:03.326Z,6400
2018-04-27T18:35:15.437Z,6356
2018-04-27T18:35:27.993Z,6316
2018-04-27T18:35:41.368Z,6312
2018-04-27T18:35:54.466Z,6360
2018-04-27T18:36:07.037Z,6480
2018-04-27T18:36:20.077Z,6540
2018-04-27T18:36:33.113Z,6556
2018-04-27T18:36:45.658Z,6520
2018-04-27T18:36:58.702Z,6560
2018-04-27T18:37:11.705Z,6524
2018-04-27T18:37:24.238Z,6500
2018-04-27T18:37:36.807Z,6488
2018-04-27T18:37:48.424Z,6464
2018-04-27T18:38:01.481Z,6456
2018-04-27T18:38:14.514Z,6436
2018-04-27T18:38:27.096Z,6468
2018-04-27T18:38:39.634Z,6380
2018-04-27T18:38:51.753Z,6428
2018-04-27T18:39:04.290Z,6356
2018-04-27T18:39:17.340Z,6248
2018-04-27T18:39:30.256Z,6192
2018-04-27T18:39:42.324Z,6236
2018-04-27T18:39:53.932Z,6336
2018-04-27T18:40:05.987Z,6468
2018-04-27T18:40:18.525Z,6592
2018-04-27T18:40:31.102Z,6660
2018-04-27T18:40:43.622Z,6684
2018-04-27T18:40:55.732Z,6688
2018-04-27T18:41:07.358Z,6732
2018-04-27T18:41:19.894Z,6780
2018-04-27T18:41:32.940Z,6856
2018-04-27T18:41:45.012Z,6900
2018-04-27T18:41:57.534Z,6904
2018-04-27T18:42:10.579Z,6880
2018-04-27T18:42:23.247Z,6836
2018-04-27T18:42:36.669Z,6772
2018-04-27T18:42:49.033Z,6800
2018-04-27T18:43:01.694Z,6888
2018-04-27T18:43:14.244Z,6964
2018-04-27T18:43:27.297Z,7056
2018-04-27T18:43:40.549Z,7140
2018-04-27T18:43:53.350Z,7176
2018-04-27T18:44:04.532Z,7216
2018-04-27T18:44:17.568Z,7232
2018-04-27T18:44:29.709Z,7268
2018-04-27T18:44:43.012Z,7324
2018-04-27T18:44:56.078Z,7324
2018-04-27T18:45:08.207Z,7404
2018-04-27T18:45:21.319Z,7492
2018-04-27T18:45:34.382Z,7560
2018-04-27T18:45:47.433Z,7616
2018-04-27T18:45:59.986Z,7640
2018-04-27T18:46:13.014Z,7636
2018-04-27T18:46:26.034Z,7712
2018-04-27T18:46:39.041Z,7804
2018-04-27T18:46:51.143Z,7852
2018-04-27T18:47:04.177Z,7864
2018-04-27T18:47:16.752Z,7832
2018-04-27T18:47:29.337Z,7776
2018-04-27T18:47:41.430Z,7728
2018-04-27T18:47:53.509Z,7696
2018-04-27T18:48:05.126Z,7760
2018-04-27T18:48:17.706Z,7992
2018-04-27T18:48:30.259Z,8160
2018-04-27T18:48:42.801Z,8180